Time;durP1;ratioP1;P1;durP2;ratioP2;P2;SDS_P1;SDS_P2;PMS_P1;PMS_P2;Temp;Humidity;BMP_temperature;BMP_pressure;BME280_temperature;BME280_humidity;BME280_pressure;Samples;Min_cycle;Max_cycle;Signal;HPM_P1;HPM_P2
2023/06/15 00:00:40;;;;;;;;;;;;;;;14.58;100.00;97213.24;110129;1242;59678;-72
2023/06/15 00:03:30;;;;;;;;;;;;;;;14.61;100.00;97220.69;110168;1241;59662;-72
2023/06/15 00:06:01;;;;;;;;;;;;;;;14.59;100.00;97221.52;110182;1244;69777;-72
2023/06/15 00:08:31;;;;;;;;;;;;;;;14.51;100.00;97218.07;110192;1244;69184;-74
2023/06/15 00:11:01;;;;;;;;;;;;;;;14.47;100.00;97215.05;110793;1240;69099;-71
2023/06/15 00:13:31;;;;;;;;;;;;;;;14.53;100.00;97214.94;111067;1242;59689;-73
2023/06/15 00:16:03;;;;;;;;;;;;;;;14.55;100.00;97215.57;110327;1242;59679;-73
2023/06/15 00:18:38;;;;;;;;;;;;;;;14.57;100.00;97215.41;110324;1242;71428;-72
2023/06/15 00:21:08;;;;;;;;;;;;;;;14.59;100.00;97212.92;110273;1242;69198;-72
2023/06/15 00:23:37;;;;;;;;;;;;;;;14.61;100.00;97205.79;110236;1241;68568;-70
2023/06/15 00:26:07;;;;;;;;;;;;;;;14.61;100.00;97204.70;110273;1242;59745;-72
2023/06/15 00:28:37;;;;;;;;;;;;;;;14.60;100.00;97204.63;110264;1240;59730;-72
2023/06/15 00:31:06;;;;;;;;;;;;;;;14.59;100.00;97206.95;110288;1240;71405;-70
2023/06/15 00:33:36;;;;;;;;;;;;;;;14.60;100.00;97211.07;110096;1240;69035;-74
2023/06/15 00:36:10;;;;;;;;;;;;;;;14.58;100.00;97208.17;110134;1240;68580;-73
2023/06/15 00:38:41;;;;;;;;;;;;;;;14.53;100.00;97206.30;109884;1244;59759;-73
2023/06/15 00:41:13;;;;;;;;;;;;;;;14.53;100.00;97205.47;110093;1244;60071;-74
2023/06/15 00:43:45;;;;;;;;;;;;;;;14.55;100.00;97201.58;109832;1242;70472;-72
2023/06/15 00:46:17;;;;;;;;;;;;;;;14.54;100.00;97204.01;109935;1244;67504;-73
2023/06/15 00:48:47;;;;;;;;;;;;;;;14.55;100.00;97206.98;109937;1242;68329;-73
2023/06/15 00:51:17;;;;;;;;;;;;;;;14.54;100.00;97204.83;109948;1243;59670;-73
2023/06/15 00:53:48;;;;;;;;;;;;;;;14.54;100.00;97206.94;110020;1243;59712;-73
2023/06/15 00:56:19;;;;;;;;;;;;;;;14.51;100.00;97207.02;109843;1244;71336;-73
2023/06/15 00:58:51;;;;;;;;;;;;;;;14.47;100.00;97205.97;109969;1244;68559;-73
2023/06/15 01:01:20;;;;;;;;;;;;;;;14.48;100.00;97201.52;110034;1244;68380;-73
2023/06/15 01:03:54;;;;;;;;;;;;;;;14.47;100.00;97195.44;110132;1244;59740;-74
2023/06/15 01:06:31;;;;;;;;;;;;;;;14.44;100.00;97197.75;110226;1243;59648;-75
2023/06/15 01:09:05;;;;;;;;;;;;;;;14.43;100.00;97202.66;109921;1246;71393;-74
2023/06/15 01:11:40;;;;;;;;;;;;;;;14.43;100.00;97203.20;110210;1244;69246;-74
2023/06/15 01:14:10;;;;;;;;;;;;;;;14.42;100.00;97199.05;110027;1244;69286;-75
2023/06/15 01:16:50;;;;;;;;;;;;;;;14.41;100.00;97202.10;110471;1244;59699;-74
2023/06/15 01:19:31;;;;;;;;;;;;;;;14.40;100.00;97198.92;110130;1244;59733;-75
2023/06/15 01:22:08;;;;;;;;;;;;;;;14.37;100.00;97197.07;110189;1244;69781;-74
2023/06/15 01:24:41;;;;;;;;;;;;;;;14.37;100.00;97200.05;110097;1242;69420;-73
2023/06/15 01:27:13;;;;;;;;;;;;;;;14.35;100.00;97193.20;110052;1243;68723;-75
2023/06/15 01:29:45;;;;;;;;;;;;;;;14.35;100.00;97194.05;109870;1243;59700;-73
2023/06/15 01:32:16;;;;;;;;;;;;;;;14.35;100.00;97193.04;109994;1243;59670;-74
2023/06/15 01:34:57;;;;;;;;;;;;;;;14.35;100.00;97195.36;109874;1244;71231;-73
2023/06/15 01:37:31;;;;;;;;;;;;;;;14.34;100.00;97199.64;110072;1242;69261;-73
2023/06/15 01:40:03;;;;;;;;;;;;;;;14.33;100.00;97200.40;110157;1240;69234;-75
2023/06/15 01:42:34;;;;;;;;;;;;;;;14.33;100.00;97201.09;110186;1240;59692;-73
2023/06/15 01:45:10;;;;;;;;;;;;;;;14.34;100.00;97200.70;110194;1240;59702;-73
2023/06/15 01:47:40;;;;;;;;;;;;;;;14.32;100.00;97197.34;110135;1244;71356;-72
2023/06/15 01:50:12;;;;;;;;;;;;;;;14.30;100.00;97198.73;110160;1240;69081;-73
2023/06/15 01:52:48;;;;;;;;;;;;;;;14.29;100.00;97198.30;110130;1240;68479;-73
2023/06/15 01:55:19;;;;;;;;;;;;;;;14.25;100.00;97192.86;110129;1241;59678;-74
2023/06/15 01:57:52;;;;;;;;;;;;;;;14.23;100.00;97189.88;110143;1242;59695;-73
2023/06/15 02:00:25;;;;;;;;;;;;;;;14.23;100.00;97192.54;110127;1243;70425;-73
2023/06/15 02:03:01;;;;;;;;;;;;;;;14.23;100.00;97190.60;110160;1241;69235;-74
2023/06/15 02:05:39;;;;;;;;;;;;;;;14.23;100.00;97191.07;110134;1244;69086;-72
2023/06/15 02:08:13;;;;;;;;;;;;;;;14.22;100.00;97189.97;110190;1242;59709;-73
2023/06/15 02:10:46;;;;;;;;;;;;;;;14.21;100.00;97189.00;110242;1242;59680;-73
2023/06/15 02:13:19;;;;;;;;;;;;;;;14.20;100.00;97186.71;110148;1240;71251;-73
2023/06/15 02:15:51;;;;;;;;;;;;;;;14.18;100.00;97190.20;109953;1244;69319;-73
2023/06/15 02:18:22;;;;;;;;;;;;;;;14.13;100.00;97191.83;110000;1241;69325;-73
2023/06/15 02:20:54;;;;;;;;;;;;;;;14.09;100.00;97194.33;110194;1242;59709;-73
2023/06/15 02:23:25;;;;;;;;;;;;;;;14.05;100.00;97195.95;110809;1242;59650;-73
2023/06/15 02:25:57;;;;;;;;;;;;;;;14.01;100.00;97200.33;110342;1243;70437;-75
2023/06/15 02:28:29;;;;;;;;;;;;;;;13.99;100.00;97200.35;110138;1244;69221;-72
2023/06/15 02:31:02;;;;;;;;;;;;;;;13.97;100.00;97205.79;110197;1240;69328;-73
2023/06/15 02:33:33;;;;;;;;;;;;;;;13.95;100.00;97209.29;110119;1240;59751;-73
2023/06/15 02:36:07;;;;;;;;;;;;;;;13.94;100.00;97210.94;110187;1242;59807;-74
2023/06/15 02:38:37;;;;;;;;;;;;;;;13.92;100.00;97205.83;110173;1242;70672;-74
2023/06/15 02:41:09;;;;;;;;;;;;;;;13.91;100.00;97198.92;110216;1240;69237;-74
2023/06/15 02:43:40;;;;;;;;;;;;;;;13.92;100.00;97201.44;110199;1240;69537;-74
2023/06/15 02:46:11;;;;;;;;;;;;;;;13.94;100.00;97201.42;110187;1240;59790;-74
2023/06/15 02:48:44;;;;;;;;;;;;;;;13.97;100.00;97198.89;110323;1241;59695;-73
2023/06/15 02:51:14;;;;;;;;;;;;;;;13.99;100.00;97197.64;110161;1240;71431;-74
2023/06/15 02:53:44;;;;;;;;;;;;;;;14.01;100.00;97202.11;110249;1240;68267;-73
2023/06/15 02:56:21;;;;;;;;;;;;;;;14.02;100.00;97199.37;110254;1240;69313;-73
2023/06/15 02:58:53;;;;;;;;;;;;;;;14.04;100.00;97200.63;110139;1240;59737;-73
2023/06/15 03:01:42;;;;;;;;;;;;;;;14.05;100.00;97204.14;110090;1244;59730;-73
2023/06/15 03:04:14;;;;;;;;;;;;;;;14.09;100.00;97210.65;110133;1242;71332;-73
2023/06/15 03:06:50;;;;;;;;;;;;;;;14.11;100.00;97216.59;110005;1244;69245;-73
2023/06/15 03:09:27;;;;;;;;;;;;;;;14.08;100.00;97217.59;110159;1244;69611;-73
2023/06/15 03:11:57;;;;;;;;;;;;;;;14.06;100.00;97216.02;110118;1243;59994;-73
2023/06/15 03:14:31;;;;;;;;;;;;;;;14.03;100.00;97219.64;110151;1244;59715;-73
2023/06/15 03:17:03;;;;;;;;;;;;;;;14.04;100.00;97215.46;110189;1241;71211;-73
2023/06/15 03:19:33;;;;;;;;;;;;;;;14.10;100.00;97215.80;110146;1244;68435;-74
2023/06/15 03:22:03;;;;;;;;;;;;;;;14.16;100.00;97212.29;110240;1245;69132;-73
2023/06/15 03:24:32;;;;;;;;;;;;;;;14.22;100.00;97207.52;110247;1240;60216;-73
2023/06/15 03:27:03;;;;;;;;;;;;;;;14.29;100.00;97209.04;110284;1240;59693;-73
2023/06/15 03:29:36;;;;;;;;;;;;;;;14.35;100.00;97210.55;110790;1240;70644;-74
2023/06/15 03:32:08;;;;;;;;;;;;;;;14.42;100.00;97207.25;110352;1242;69220;-73
2023/06/15 03:34:38;;;;;;;;;;;;;;;14.47;100.00;97205.58;110242;1242;67355;-73
2023/06/15 03:37:07;;;;;;;;;;;;;;;14.52;100.00;97205.16;110266;1242;59764;-74
2023/06/15 03:39:38;;;;;;;;;;;;;;;14.55;100.00;97204.35;110246;1241;59685;-74
2023/06/15 03:42:09;;;;;;;;;;;;;;;14.57;100.00;97200.13;110251;1243;70856;-74
2023/06/15 03:44:38;;;;;;;;;;;;;;;14.58;100.00;97199.36;110068;1241;69231;-73
2023/06/15 03:47:08;;;;;;;;;;;;;;;14.58;100.00;97204.43;110168;1240;68572;-74
2023/06/15 03:49:38;;;;;;;;;;;;;;;14.61;100.00;97207.84;110081;1241;59687;-73
2023/06/15 03:52:07;;;;;;;;;;;;;;;14.69;100.00;97207.60;110000;1240;59673;-73
2023/06/15 03:54:37;;;;;;;;;;;;;;;14.80;100.00;97213.10;110117;1243;71349;-74
2023/06/15 03:57:07;;;;;;;;;;;;;;;14.88;100.00;97215.83;110251;1243;69684;-74
2023/06/15 03:59:37;;;;;;;;;;;;;;;14.93;100.00;97214.84;110286;1241;69200;-73
2023/06/15 04:02:07;;;;;;;;;;;;;;;15.00;100.00;97213.10;110077;1241;59705;-73
2023/06/15 04:04:35;;;;;;;;;;;;;;;15.10;100.00;97217.14;110102;1243;59713;-75
2023/06/15 04:07:06;;;;;;;;;;;;;;;15.19;100.00;97214.36;110286;1240;71538;-74
2023/06/15 04:09:36;;;;;;;;;;;;;;;15.28;100.00;97214.52;110122;1244;69198;-73
2023/06/15 04:12:06;;;;;;;;;;;;;;;15.39;100.00;97215.77;110136;1240;68761;-73
2023/06/15 04:14:35;;;;;;;;;;;;;;;15.46;100.00;97212.63;110139;1240;59763;-73
2023/06/15 04:17:04;;;;;;;;;;;;;;;15.51;100.00;97214.66;110153;1241;59750;-73
2023/06/15 04:19:33;;;;;;;;;;;;;;;15.50;100.00;97219.06;110141;1242;71336;-74
2023/06/15 04:22:03;;;;;;;;;;;;;;;15.46;100.00;97220.38;110161;1240;68705;-73
2023/06/15 04:24:32;;;;;;;;;;;;;;;15.38;100.00;97217.44;110072;1244;69180;-74
2023/06/15 04:27:02;;;;;;;;;;;;;;;15.33;100.00;97216.52;110302;1240;59735;-73
2023/06/15 04:29:31;;;;;;;;;;;;;;;15.32;100.00;97211.43;110262;1243;59743;-73
2023/06/15 04:32:03;;;;;;;;;;;;;;;15.32;100.00;97207.36;110293;1240;71379;-74
2023/06/15 04:34:34;;;;;;;;;;;;;;;15.32;100.00;97209.29;110343;1240;69795;-74
2023/06/15 04:37:06;;;;;;;;;;;;;;;15.30;100.00;97208.55;110421;1245;69308;-73
2023/06/15 04:39:38;;;;;;;;;;;;;;;15.31;100.00;97209.58;110223;1241;60175;-74
2023/06/15 04:42:09;;;;;;;;;;;;;;;15.38;100.00;97210.65;110321;1241;59671;-73
2023/06/15 04:44:38;;;;;;;;;;;;;;;15.53;100.00;97214.45;110182;1244;71242;-73
2023/06/15 04:47:08;;;;;;;;;;;;;;;15.71;100.00;97215.35;110241;1242;69249;-75
2023/06/15 04:49:37;;;;;;;;;;;;;;;15.93;100.00;97218.57;110202;1240;68702;-72
2023/06/15 04:52:09;;;;;;;;;;;;;;;16.12;100.00;97226.96;109904;1244;59663;-73
2023/06/15 04:54:40;;;;;;;;;;;;;;;16.24;100.00;97227.21;110129;1240;59650;-74
2023/06/15 04:57:09;;;;;;;;;;;;;;;16.35;100.00;97235.70;110301;1242;70840;-73
2023/06/15 04:59:38;;;;;;;;;;;;;;;16.40;100.00;97234.13;110242;1244;68344;-73
2023/06/15 05:02:08;;;;;;;;;;;;;;;16.47;100.00;97233.39;110254;1242;69282;-73
2023/06/15 05:04:39;;;;;;;;;;;;;;;16.64;100.00;97233.27;110268;1240;59751;-75
2023/06/15 05:07:08;;;;;;;;;;;;;;;16.93;100.00;97231.81;110230;1243;59699;-73
2023/06/15 05:09:43;;;;;;;;;;;;;;;17.23;100.00;97232.41;110269;1242;71275;-73
2023/06/15 05:12:16;;;;;;;;;;;;;;;17.40;98.86;97235.63;110248;1240;69128;-73
2023/06/15 05:14:45;;;;;;;;;;;;;;;17.53;98.72;97233.95;110029;1243;68509;-73
2023/06/15 05:17:14;;;;;;;;;;;;;;;17.54;97.53;97235.41;110272;1242;59665;-74
2023/06/15 05:19:43;;;;;;;;;;;;;;;17.69;97.31;97229.94;110141;1240;59747;-72
2023/06/15 05:22:12;;;;;;;;;;;;;;;17.99;96.21;97229.30;110156;1240;71282;-73
2023/06/15 05:24:41;;;;;;;;;;;;;;;18.32;95.46;97231.70;110155;1243;69810;-74
2023/06/15 05:27:11;;;;;;;;;;;;;;;18.59;93.79;97233.42;110254;1244;69310;-72
2023/06/15 05:29:44;;;;;;;;;;;;;;;18.79;92.97;97233.41;110256;1240;59780;-74
2023/06/15 05:32:14;;;;;;;;;;;;;;;18.87;89.93;97232.14;109998;1244;59691;-73
2023/06/15 05:34:43;;;;;;;;;;;;;;;18.96;90.69;97234.15;110238;1240;71378;-73
2023/06/15 05:37:13;;;;;;;;;;;;;;;19.05;89.47;97232.18;109936;1244;69634;-73
2023/06/15 05:39:44;;;;;;;;;;;;;;;19.14;90.49;97238.05;110382;1241;69300;-74
2023/06/15 05:42:13;;;;;;;;;;;;;;;19.21;90.19;97236.86;110325;1244;59815;-74
2023/06/15 05:44:45;;;;;;;;;;;;;;;19.30;90.73;97235.92;110286;1242;59706;-75
2023/06/15 05:47:15;;;;;;;;;;;;;;;19.38;89.24;97237.48;110223;1243;70633;-73
2023/06/15 05:49:44;;;;;;;;;;;;;;;19.42;88.40;97241.65;109996;1244;69213;-74
2023/06/15 05:52:17;;;;;;;;;;;;;;;19.45;85.62;97241.67;110183;1244;69146;-74
2023/06/15 05:54:46;;;;;;;;;;;;;;;19.49;83.27;97241.05;110191;1242;59695;-72
2023/06/15 05:57:16;;;;;;;;;;;;;;;19.52;84.27;97240.35;110215;1244;59685;-71
2023/06/15 05:59:46;;;;;;;;;;;;;;;19.56;83.32;97240.84;110093;1244;70405;-73
2023/06/15 06:02:15;;;;;;;;;;;;;;;19.41;83.79;97241.24;110290;1243;69311;-72
2023/06/15 06:04:45;;;;;;;;;;;;;;;19.55;85.29;97239.81;110086;1244;69141;-74
2023/06/15 06:07:15;;;;;;;;;;;;;;;19.77;86.21;97238.24;110074;1243;59757;-72
2023/06/15 06:09:44;;;;;;;;;;;;;;;20.03;86.10;97242.63;110254;1243;59699;-72
2023/06/15 06:12:13;;;;;;;;;;;;;;;20.18;83.65;97241.20;110130;1244;72101;-74
2023/06/15 06:14:45;;;;;;;;;;;;;;;20.29;81.51;97242.52;110282;1243;69061;-74
2023/06/15 06:17:13;;;;;;;;;;;;;;;20.12;81.68;97246.06;110077;1244;69118;-74
2023/06/15 06:20:03;;;;;;;;;;;;;;;20.25;80.95;97247.95;110221;1243;59768;-73
2023/06/15 06:22:32;;;;;;;;;;;;;;;20.54;80.30;97248.00;110289;1241;59709;-73
2023/06/15 06:25:01;;;;;;;;;;;;;;;20.88;79.16;97250.63;110129;1244;71255;-74
2023/06/15 06:27:30;;;;;;;;;;;;;;;21.11;76.94;97251.06;110279;1242;69236;-75
2023/06/15 06:29:59;;;;;;;;;;;;;;;21.48;75.67;97253.10;110380;1243;69339;-74
2023/06/15 06:32:28;;;;;;;;;;;;;;;21.87;75.59;97252.08;110240;1241;59705;-74
2023/06/15 06:34:57;;;;;;;;;;;;;;;22.38;71.57;97249.45;110242;1243;59701;-73
2023/06/15 06:37:26;;;;;;;;;;;;;;;22.45;67.79;97247.23;110231;1242;70477;-72
2023/06/15 06:39:56;;;;;;;;;;;;;;;22.59;68.30;97246.77;110111;1242;69956;-73
2023/06/15 06:42:25;;;;;;;;;;;;;;;22.54;67.68;97242.95;110258;1241;67500;-74
2023/06/15 06:44:55;;;;;;;;;;;;;;;22.60;67.27;97247.52;110257;1244;59785;-73
2023/06/15 06:47:25;;;;;;;;;;;;;;;22.59;66.26;97247.83;110284;1240;59635;-74
2023/06/15 06:49:54;;;;;;;;;;;;;;;23.06;66.56;97251.81;109864;1242;559026;-74
2023/06/15 06:52:23;;;;;;;;;;;;;;;23.69;67.28;97251.84;110244;1242;69463;-72
2023/06/15 06:54:52;;;;;;;;;;;;;;;24.19;64.31;97252.58;110238;1243;69260;-74
2023/06/15 06:57:21;;;;;;;;;;;;;;;24.47;61.69;97247.54;110246;1244;59751;-75
2023/06/15 06:59:50;;;;;;;;;;;;;;;24.41;59.58;97246.89;110267;1240;59751;-74
2023/06/15 07:02:19;;;;;;;;;;;;;;;23.96;60.51;97246.48;110288;1245;71372;-73
2023/06/15 07:04:48;;;;;;;;;;;;;;;23.56;61.30;97248.02;110297;1242;69708;-73
2023/06/15 07:07:18;;;;;;;;;;;;;;;24.01;61.31;97245.69;110252;1240;69632;-73
2023/06/15 07:09:46;;;;;;;;;;;;;;;24.55;60.58;97244.29;110233;1240;59711;-75
2023/06/15 07:12:15;;;;;;;;;;;;;;;24.90;59.27;97243.20;110223;1242;59679;-74
2023/06/15 07:14:44;;;;;;;;;;;;;;;25.02;57.42;97244.05;110252;1242;71984;-73
2023/06/15 07:17:13;;;;;;;;;;;;;;;24.84;57.84;97239.87;110249;1240;69224;-75
2023/06/15 07:19:42;;;;;;;;;;;;;;;24.67;57.94;97234.07;110227;1240;68968;-74
2023/06/15 07:22:10;;;;;;;;;;;;;;;24.87;58.62;97236.45;110256;1242;59807;-74
2023/06/15 07:24:39;;;;;;;;;;;;;;;24.99;58.23;97237.15;110266;1242;59740;-73
2023/06/15 07:27:08;;;;;;;;;;;;;;;24.57;57.73;97237.46;110277;1240;71416;-74
2023/06/15 07:29:37;;;;;;;;;;;;;;;24.21;58.38;97236.48;110299;1242;69887;-75
2023/06/15 07:32:06;;;;;;;;;;;;;;;24.30;59.34;97237.45;110372;1240;69847;-75
2023/06/15 07:34:35;;;;;;;;;;;;;;;24.28;58.27;97233.79;110386;1243;59710;-73
2023/06/15 07:37:04;;;;;;;;;;;;;;;23.98;58.70;97230.00;110230;1240;59672;-75
2023/06/15 07:39:34;;;;;;;;;;;;;;;23.64;59.82;97232.04;110305;1240;71858;-74
2023/06/15 07:42:03;;;;;;;;;;;;;;;23.47;60.57;97228.02;110252;1244;69817;-73
2023/06/15 07:44:32;;;;;;;;;;;;;;;23.66;60.78;97225.57;110095;1241;69380;-74
2023/06/15 07:47:01;;;;;;;;;;;;;;;23.51;60.65;97224.84;110021;1244;59713;-74
2023/06/15 07:49:30;;;;;;;;;;;;;;;23.30;61.29;97221.21;110281;1240;59694;-73
2023/06/15 07:52:13;;;;;;;;;;;;;;;23.18;62.22;97226.67;110315;1240;71319;-72
2023/06/15 07:54:43;;;;;;;;;;;;;;;23.12;62.50;97223.63;110181;1241;68458;-73
2023/06/15 07:57:11;;;;;;;;;;;;;;;23.14;62.45;97221.73;110275;1240;69281;-74
2023/06/15 07:59:40;;;;;;;;;;;;;;;23.10;62.58;97220.84;110299;1243;60038;-74
2023/06/15 08:02:09;;;;;;;;;;;;;;;23.09;63.00;97221.86;110261;1240;59716;-73
2023/06/15 08:04:38;;;;;;;;;;;;;;;23.50;61.70;97219.55;110252;1240;71463;-74
2023/06/15 08:07:08;;;;;;;;;;;;;;;23.68;61.52;97218.36;110279;1240;68293;-73
2023/06/15 08:09:36;;;;;;;;;;;;;;;23.84;62.09;97217.77;110269;1244;69892;-75
2023/06/15 08:12:05;;;;;;;;;;;;;;;23.90;60.90;97217.70;110248;1245;59698;-74
2023/06/15 08:14:35;;;;;;;;;;;;;;;23.72;60.42;97216.45;110274;1240;59672;-74
2023/06/15 08:17:05;;;;;;;;;;;;;;;23.98;61.00;97221.99;110217;1244;71391;-74
2023/06/15 08:19:36;;;;;;;;;;;;;;;24.31;60.11;97217.32;110271;1240;69240;-73
2023/06/15 08:22:05;;;;;;;;;;;;;;;24.57;60.36;97221.68;110255;1251;69883;-74
2023/06/15 08:24:34;;;;;;;;;;;;;;;24.87;59.19;97225.38;110303;1244;59670;-73
2023/06/15 08:27:05;;;;;;;;;;;;;;;24.94;55.96;97222.88;110268;1240;59742;-73
2023/06/15 08:29:34;;;;;;;;;;;;;;;25.24;58.51;97225.75;110270;1240;70650;-71
2023/06/15 08:32:06;;;;;;;;;;;;;;;25.43;56.90;97226.60;110237;1240;67483;-74
2023/06/15 08:34:35;;;;;;;;;;;;;;;25.49;56.19;97228.02;110236;1240;68617;-74
2023/06/15 08:37:04;;;;;;;;;;;;;;;25.44;55.92;97230.34;110534;1240;59605;-73
2023/06/15 08:39:33;;;;;;;;;;;;;;;25.49;56.06;97230.45;110453;1242;59640;-74
2023/06/15 08:42:02;;;;;;;;;;;;;;;25.36;55.02;97233.20;110316;1240;71349;-74
2023/06/15 08:44:34;;;;;;;;;;;;;;;25.20;54.55;97235.20;110276;1243;69237;-74
2023/06/15 08:47:03;;;;;;;;;;;;;;;25.02;56.25;97233.40;110075;1240;69395;-74
2023/06/15 08:49:32;;;;;;;;;;;;;;;24.91;55.73;97231.67;110297;1240;59746;-74
2023/06/15 08:52:03;;;;;;;;;;;;;;;24.92;56.18;97230.65;110264;1244;59681;-73
2023/06/15 08:54:32;;;;;;;;;;;;;;;24.72;56.84;97231.19;110259;1244;71368;-73
2023/06/15 08:57:01;;;;;;;;;;;;;;;24.69;57.01;97234.15;110267;1240;69284;-72
2023/06/15 08:59:31;;;;;;;;;;;;;;;24.57;57.90;97229.25;110254;1243;68501;-73
2023/06/15 09:02:02;;;;;;;;;;;;;;;24.44;58.94;97224.83;110273;1240;59667;-74
2023/06/15 09:04:31;;;;;;;;;;;;;;;24.44;59.36;97222.98;110258;1242;59731;-73
2023/06/15 09:07:01;;;;;;;;;;;;;;;24.27;58.63;97223.24;110261;1244;70593;-73
2023/06/15 09:09:29;;;;;;;;;;;;;;;24.15;57.94;97224.88;110265;1240;68843;-73
2023/06/15 09:11:58;;;;;;;;;;;;;;;23.96;59.47;97220.27;110244;1242;69365;-72
2023/06/15 09:14:26;;;;;;;;;;;;;;;24.06;61.05;97219.75;110236;1242;59737;-73
2023/06/15 09:16:55;;;;;;;;;;;;;;;24.16;61.37;97217.77;110281;1242;59734;-72
2023/06/15 09:19:24;;;;;;;;;;;;;;;24.11;61.08;97218.86;110271;1243;71797;-72
2023/06/15 09:21:54;;;;;;;;;;;;;;;24.26;61.44;97215.40;110253;1242;69802;-72
2023/06/15 09:24:24;;;;;;;;;;;;;;;24.27;59.19;97221.48;110244;1240;67874;-74
2023/06/15 09:26:53;;;;;;;;;;;;;;;23.95;57.70;97221.45;110262;1243;59735;-74
2023/06/15 09:29:21;;;;;;;;;;;;;;;23.76;58.96;97222.86;110290;1242;59694;-73
2023/06/15 09:31:50;;;;;;;;;;;;;;;23.61;57.53;97223.73;110251;1242;71992;-73
2023/06/15 09:34:19;;;;;;;;;;;;;;;23.76;58.30;97228.41;110139;1243;69225;-73
2023/06/15 09:36:48;;;;;;;;;;;;;;;23.81;59.20;97223.21;110136;1242;69272;-73
2023/06/15 09:39:24;;;;;;;;;;;;;;;23.76;60.60;97225.03;110180;1242;59692;-72
2023/06/15 09:41:56;;;;;;;;;;;;;;;23.61;61.03;97221.95;110279;1243;59681;-73
2023/06/15 09:44:26;;;;;;;;;;;;;;;23.40;62.26;97220.32;110342;1243;71964;-75
2023/06/15 09:46:59;;;;;;;;;;;;;;;23.33;63.75;97219.42;110277;1243;68296;-72
2023/06/15 09:49:31;;;;;;;;;;;;;;;23.02;66.63;97218.33;110238;1242;69338;-72
2023/06/15 09:52:00;;;;;;;;;;;;;;;23.01;66.94;97217.02;110286;1242;59712;-74
2023/06/15 09:54:30;;;;;;;;;;;;;;;22.98;68.14;97217.97;110288;1240;60091;-73
2023/06/15 09:57:01;;;;;;;;;;;;;;;23.06;67.38;97215.52;110224;1242;71972;-73
2023/06/15 09:59:30;;;;;;;;;;;;;;;23.06;67.36;97212.08;110138;1242;69310;-72
2023/06/15 10:02:00;;;;;;;;;;;;;;;23.12;66.15;97210.98;110159;1244;69192;-72
2023/06/15 10:04:32;;;;;;;;;;;;;;;23.25;65.88;97210.30;110191;1242;59681;-73
2023/06/15 10:07:03;;;;;;;;;;;;;;;23.50;64.40;97210.95;110199;1240;59730;-73
2023/06/15 10:09:48;;;;;;;;;;;;;;;23.98;65.17;97209.34;110309;1240;71693;-73
2023/06/15 10:12:22;;;;;;;;;;;;;;;24.56;63.34;97209.43;110269;1242;68569;-72
2023/06/15 10:15:10;;;;;;;;;;;;;;;25.06;61.22;97207.04;110236;1240;69286;-73
2023/06/15 10:17:41;;;;;;;;;;;;;;;25.46;59.72;97206.52;110248;1242;59669;-72
2023/06/15 10:20:17;;;;;;;;;;;;;;;25.53;56.85;97203.55;110362;1244;59754;-74
2023/06/15 10:22:50;;;;;;;;;;;;;;;26.09;55.55;97200.86;110300;1243;70415;-75
2023/06/15 10:25:19;;;;;;;;;;;;;;;26.07;54.97;97198.40;110291;1240;69824;-74
2023/06/15 10:27:48;;;;;;;;;;;;;;;25.83;56.43;97194.64;110284;1240;69170;-74
2023/06/15 10:30:35;;;;;;;;;;;;;;;26.23;56.11;97189.73;110276;1240;59724;-74
2023/06/15 10:33:07;;;;;;;;;;;;;;;26.96;56.03;97189.06;110261;1243;59678;-74
2023/06/15 10:35:39;;;;;;;;;;;;;;;27.48;53.55;97184.91;110283;1243;71965;-74
2023/06/15 10:38:14;;;;;;;;;;;;;;;27.80;52.98;97177.84;110278;1243;69829;-74
2023/06/15 10:40:45;;;;;;;;;;;;;;;27.64;49.05;97177.32;110258;1240;68514;-75
2023/06/15 10:43:25;;;;;;;;;;;;;;;28.05;50.20;97170.95;110500;1242;59751;-73
2023/06/15 10:45:53;;;;;;;;;;;;;;;28.59;48.79;97170.02;110396;1241;59698;-73
2023/06/15 10:48:24;;;;;;;;;;;;;;;28.75;46.95;97171.00;110265;1240;71189;-74
2023/06/15 10:51:02;;;;;;;;;;;;;;;28.99;47.50;97166.88;110296;1249;69220;-73
2023/06/15 10:53:40;;;;;;;;;;;;;;;28.99;47.77;97165.23;110273;1240;68529;-74
2023/06/15 10:56:13;;;;;;;;;;;;;;;28.92;45.22;97167.70;110239;1244;59694;-75
2023/06/15 10:59:03;;;;;;;;;;;;;;;29.13;47.10;97164.27;110216;1242;59630;-74
2023/06/15 11:01:32;;;;;;;;;;;;;;;29.07;45.65;97163.84;110237;1242;71402;-73
2023/06/15 11:04:02;;;;;;;;;;;;;;;29.16;45.19;97166.05;110222;1243;69822;-74
2023/06/15 11:06:32;;;;;;;;;;;;;;;29.30;45.31;97164.41;110251;1240;69825;-74
2023/06/15 11:09:04;;;;;;;;;;;;;;;29.26;44.91;97164.28;110236;1241;59677;-73
2023/06/15 11:11:35;;;;;;;;;;;;;;;29.54;44.73;97163.15;110237;1242;59706;-73
2023/06/15 11:14:04;;;;;;;;;;;;;;;29.33;44.32;97160.55;110248;1242;70442;-74
2023/06/15 11:16:34;;;;;;;;;;;;;;;29.65;42.68;97155.74;110220;1241;69878;-73
2023/06/15 11:19:11;;;;;;;;;;;;;;;29.64;41.92;97157.81;110242;1242;68528;-75
2023/06/15 11:21:43;;;;;;;;;;;;;;;29.90;41.99;97156.04;110284;1240;59734;-73
2023/06/15 11:24:13;;;;;;;;;;;;;;;30.08;43.04;97154.98;110285;1240;59751;-73
2023/06/15 11:26:43;;;;;;;;;;;;;;;29.92;39.83;97156.15;110261;1240;71959;-72
2023/06/15 11:29:15;;;;;;;;;;;;;;;29.53;41.38;97160.35;110285;1240;69767;-74
2023/06/15 11:31:44;;;;;;;;;;;;;;;28.95;40.36;97159.64;110262;1240;69100;-74
2023/06/15 11:34:13;;;;;;;;;;;;;;;29.22;42.45;97159.88;110270;1240;59685;-73
2023/06/15 11:36:42;;;;;;;;;;;;;;;29.18;44.33;97159.84;110276;1242;59673;-74
2023/06/15 11:39:20;;;;;;;;;;;;;;;29.10;44.85;97158.73;110291;1242;71332;-74
2023/06/15 11:41:53;;;;;;;;;;;;;;;29.39;43.37;97155.95;110273;1240;69318;-73
2023/06/15 11:44:27;;;;;;;;;;;;;;;29.59;42.87;97148.88;110342;1242;68997;-75
2023/06/15 11:46:56;;;;;;;;;;;;;;;29.63;42.32;97152.73;111139;1240;59607;-73
2023/06/15 11:49:34;;;;;;;;;;;;;;;29.49;41.42;97150.33;110405;1242;59658;-73
2023/06/15 11:52:04;;;;;;;;;;;;;;;29.34;41.98;97150.80;110209;1242;71479;-75
2023/06/15 11:54:32;;;;;;;;;;;;;;;28.76;43.32;97143.38;110297;1240;68130;-74
2023/06/15 11:57:21;;;;;;;;;;;;;;;28.72;44.39;97144.38;110194;1242;68595;-72
2023/06/15 11:59:50;;;;;;;;;;;;;;;28.31;45.30;97143.08;110122;1242;59671;-74
2023/06/15 12:02:20;;;;;;;;;;;;;;;27.46;47.39;97145.70;110266;1242;59702;-73
2023/06/15 12:04:53;;;;;;;;;;;;;;;27.06;48.09;97144.16;110326;1240;71396;-73
2023/06/15 12:07:23;;;;;;;;;;;;;;;27.08;48.36;97143.80;110269;1240;69375;-72
2023/06/15 12:10:06;;;;;;;;;;;;;;;27.35;49.93;97141.50;110236;1242;69671;-72
2023/06/15 12:12:35;;;;;;;;;;;;;;;27.50;49.70;97141.04;110230;1242;59748;-73
2023/06/15 12:15:05;;;;;;;;;;;;;;;27.19;47.78;97136.11;110283;1240;59668;-74
2023/06/15 12:17:35;;;;;;;;;;;;;;;27.10;48.86;97135.86;110269;1240;70635;-72
2023/06/15 12:20:09;;;;;;;;;;;;;;;27.14;50.43;97134.65;110154;1240;69031;-74
2023/06/15 12:22:46;;;;;;;;;;;;;;;27.19;49.21;97132.27;110290;1244;69260;-73
2023/06/15 12:25:15;;;;;;;;;;;;;;;27.27;49.73;97134.17;110265;1242;60151;-71
2023/06/15 12:27:49;;;;;;;;;;;;;;;27.33;49.69;97131.61;110129;1240;59729;-72
2023/06/15 12:30:24;;;;;;;;;;;;;;;27.20;49.50;97132.89;110132;1241;72630;-74
2023/06/15 12:32:53;;;;;;;;;;;;;;;27.12;51.14;97133.34;110247;1241;70252;-73
2023/06/15 12:35:42;;;;;;;;;;;;;;;27.29;51.59;97128.53;110249;1240;68705;-74
2023/06/15 12:38:10;;;;;;;;;;;;;;;27.26;49.92;97126.90;110210;1242;59700;-72
2023/06/15 12:40:40;;;;;;;;;;;;;;;27.38;49.08;97122.52;110137;1240;59744;-73
2023/06/15 12:43:09;;;;;;;;;;;;;;;27.16;48.87;97125.42;110318;1240;70811;-73
2023/06/15 12:45:37;;;;;;;;;;;;;;;26.77;49.94;97124.77;110285;1240;69237;-74
2023/06/15 12:48:06;;;;;;;;;;;;;;;26.43;50.87;97123.11;110287;1240;70220;-74
2023/06/15 12:50:35;;;;;;;;;;;;;;;26.51;50.77;97120.05;110340;1242;59812;-74
2023/06/15 12:53:05;;;;;;;;;;;;;;;26.48;50.74;97121.40;110268;1241;59681;-75